Lihue, HI

6:37 PM HST on September 18, 2014 (GMT -1000)
Barking Sands PMRF | Change Station
CLOSE
Current Station
Airport
Location: Barking Sands,
Elevation: 13 ft
Nearby Weather Stations

Elev 13 ft 22.02 °N, 159.79 °W | Updated 29 minutes ago

Overcast
Overcast
75 °F
Feels Like 75 °F
N
7
Wind Variable Wind from SE

Today
High -- | Low -- °F
--% Chance of Precip.
Yesterday
High -- | Low -- °F
Precip. -- in
6:25 AM 6:37 PM
Waning Crescent, 22% visible
Pressure 29.92 in
Visibility 10.0 miles
Clouds Scattered Clouds 2400 ft
Overcast 3300 ft
Dew Point 72 °F
Humidity 89%
Rainfall 0.05 in
Snow Depth Not available.
UV 0 out of 12
Pollen Not available.
Air Quality Not available.
Flu Activity Not available.
METAR PHBK 190408Z AUTO 14006KT 10SM SCT024 OVC033 24/22 A2992 RMK AO2 TSNO

More Conditions Fewer Conditions

Pressure 29.92 in
Visibility 10.0 miles
Clouds Scattered Clouds 2400 ft
Overcast 3300 ft
Dew Point 72 °F
Humidity 89%
Rainfall 0.05 in
Snow Depth Not available.
UV 0 out of 12
Pollen Not available.
Air Quality Not available.
Flu Activity Not available.
METAR PHBK 190408Z AUTO 14006KT 10SM SCT024 OVC033 24/22 A2992 RMK AO2 TSNO

More Conditions Fewer Conditions

10-Day Weather Forecast

Almanac

Astronomy

Sep. 18, 2014 Rise Set
Actual Time 6:25 AM HST 6:37 PM HST
Civil Twilight 6:02 AM HST 6:59 PM HST
Nautical Twilight 5:36 AM HST 7:25 PM HST
Astronomical Twilight 5:10 AM HST 7:51 PM HST
Moon 1:54 AM HST (9/18) 3:11 PM HST (9/18)
Length of Visible Light 12h 56m
Length of Day
12h 12m
Tomorrow will be 1m 16s shorter.
Waning Crescent, 22% of the Moon is Illuminated
Sep 19
Waning Crescent
Sep 24
New
Oct 1
First Quarter
Oct 8
Full
Oct 15
Last Quarter

Yesterday's Extremes

State Highs State Lows

Community

WunderPhotos

Upload Photos

1,754,558 photos uploaded!

Nearby

Snow Depth

Station Depth Elevation
No new snow has been reported.

Earthquake Activity

City Distance Mag. Time & Date
No recent earthquake activity has been reported nearby.
Minimum magnitude displayed is 2.5.

Coastal Water Temperatures

Place Temperature
No Stations Reporting

Nearby Weather Stations